< < Back
Terminal Aerodrome Forecast


Current Version              Previous Versions:   1  2  3  4  5  6  7  8  9  

Terminal Aerodrome Forecast

797
FTUS44 KBMX 240500
TAFANB
TAF
KANB 240526Z 2406/2506 00000KT P6SM SKC
     FM241600 18006KT P6SM SCT050=



Latest METAR

401
SAUS70 KWBC 241400 RRA
MTRANB
METAR KANB 241353Z AUTO 05007KT 10SM CLR 17/06 A3003 RMK AO2 SLP167
T01670061


USA.gov is the U.S. government's official web portal to all federal, state and local government web resources and services.